Time;durP1;ratioP1;P1;durP2;ratioP2;P2;SDS_P1;SDS_P2;PMS_P1;PMS_P2;Temp;Humidity;BMP_temperature;BMP_pressure;BME280_temperature;BME280_humidity;BME280_pressure;Samples;Min_cycle;Max_cycle;Signal;HPM_P1;HPM_P2
2024/03/24 00:01:56;;;;;;;3.97;3.10;;;6.50;99.90;;;;;;5036516;28;20186;-63
2024/03/24 00:04:21;;;;;;;3.87;2.90;;;6.50;99.90;;;;;;5036738;28;20186;-63
2024/03/24 00:06:48;;;;;;;4.27;3.30;;;6.40;99.90;;;;;;5035561;28;20201;-63
2024/03/24 00:09:13;;;;;;;6.63;4.00;;;6.30;99.90;;;;;;5036780;28;20606;-63
2024/03/24 00:11:41;;;;;;;4.57;3.10;;;6.40;99.90;;;;;;5036293;28;20467;-63
2024/03/24 00:14:07;;;;;;;4.40;3.70;;;6.40;99.90;;;;;;5067493;28;20626;-63
2024/03/24 00:16:33;;;;;;;4.63;3.50;;;6.40;99.90;;;;;;5036396;28;20427;-63
2024/03/24 00:19:00;;;;;;;4.40;3.33;;;6.30;99.90;;;;;;5036108;28;20178;-64
2024/03/24 00:21:26;;;;;;;7.30;4.20;;;6.40;99.90;;;;;;5035736;28;20205;-63
2024/03/24 00:23:52;;;;;;;4.40;3.70;;;6.40;99.90;;;;;;5036253;28;20452;-63
2024/03/24 00:26:18;;;;;;;6.17;3.70;;;6.40;99.90;;;;;;5036275;28;20904;-63
2024/03/24 00:28:44;;;;;;;10.07;4.57;;;6.40;99.90;;;;;;5036824;28;20996;-63
2024/03/24 00:31:09;;;;;;;6.20;4.60;;;6.40;99.90;;;;;;5035639;28;20701;-63
2024/03/24 00:33:35;;;;;;;5.90;4.40;;;6.40;99.90;;;;;;5036130;28;20192;-63
2024/03/24 00:36:01;;;;;;;4.67;4.00;;;6.40;99.90;;;;;;5035823;28;20225;-63
2024/03/24 00:38:26;;;;;;;5.20;4.53;;;6.40;99.90;;;;;;5036061;28;20197;-63
2024/03/24 00:40:52;;;;;;;10.07;4.47;;;6.40;99.90;;;;;;5035783;28;20270;-63
2024/03/24 00:43:18;;;;;;;6.87;5.00;;;6.40;99.90;;;;;;5035565;28;20179;-63
2024/03/24 00:45:44;;;;;;;6.10;4.80;;;6.40;99.90;;;;;;5035843;28;20193;-63
2024/03/24 00:48:09;;;;;;;6.00;4.83;;;6.50;99.90;;;;;;5035739;28;20552;-63
2024/03/24 00:50:35;;;;;;;7.20;5.00;;;6.50;99.90;;;;;;5035294;28;20465;-63
2024/03/24 00:53:01;;;;;;;6.57;5.57;;;6.50;99.90;;;;;;5036050;28;20611;-63
2024/03/24 00:55:26;;;;;;;6.73;5.17;;;6.50;99.90;;;;;;5034999;28;20210;-63
2024/03/24 00:57:52;;;;;;;8.93;5.50;;;6.40;99.90;;;;;;5036021;28;20717;-63
2024/03/24 01:00:18;;;;;;;7.87;5.40;;;6.50;99.90;;;;;;5034746;28;20183;-63
2024/03/24 01:02:48;;;;;;;5.50;4.80;;;6.40;99.90;;;;;;5036194;28;20205;-64
2024/03/24 01:05:14;;;;;;;6.80;5.43;;;6.40;99.90;;;;;;5035672;28;20423;-63
2024/03/24 01:07:40;;;;;;;5.97;5.30;;;6.30;99.90;;;;;;5036007;28;20785;-63
2024/03/24 01:10:06;;;;;;;13.03;5.20;;;6.40;99.90;;;;;;5035822;28;20202;-63
2024/03/24 01:12:31;;;;;;;6.57;5.10;;;6.40;99.90;;;;;;5033610;28;20486;-63
2024/03/24 01:14:57;;;;;;;9.47;5.90;;;6.50;99.90;;;;;;5035848;28;20428;-63
2024/03/24 01:17:23;;;;;;;6.50;6.00;;;6.40;99.90;;;;;;5033981;28;20267;-63
2024/03/24 01:19:48;;;;;;;8.43;5.37;;;6.50;99.90;;;;;;5035075;28;20185;-63
2024/03/24 01:22:14;;;;;;;7.20;5.90;;;6.50;99.90;;;;;;5035791;28;20187;-63
2024/03/24 01:24:40;;;;;;;7.40;5.87;;;6.40;99.90;;;;;;5050413;28;20223;-63
2024/03/24 01:27:06;;;;;;;7.37;6.67;;;6.50;99.90;;;;;;5035012;28;20575;-63
2024/03/24 01:29:31;;;;;;;8.03;6.70;;;6.50;99.90;;;;;;5034360;28;20249;-63
2024/03/24 01:31:57;;;;;;;6.80;5.83;;;6.50;99.90;;;;;;5035166;28;20182;-63
2024/03/24 01:34:24;;;;;;;7.60;6.63;;;6.40;99.90;;;;;;5034430;28;20264;-63
2024/03/24 01:36:50;;;;;;;6.73;6.03;;;6.40;99.90;;;;;;5035444;28;20562;-63
2024/03/24 01:39:16;;;;;;;7.67;6.63;;;6.50;99.90;;;;;;5034602;28;20434;-64
2024/03/24 01:41:41;;;;;;;9.30;6.20;;;6.50;99.90;;;;;;5035104;28;20432;-63
2024/03/24 01:44:07;;;;;;;7.60;6.37;;;6.60;99.90;;;;;;5035068;28;20228;-63
2024/03/24 01:46:33;;;;;;;6.50;5.87;;;6.60;99.90;;;;;;5034520;28;20500;-63
2024/03/24 01:48:59;;;;;;;8.60;6.23;;;6.50;99.90;;;;;;5035008;28;20569;-63
2024/03/24 01:51:25;;;;;;;9.40;6.70;;;6.50;99.90;;;;;;5033885;28;20436;-63
2024/03/24 01:53:53;;;;;;;8.33;6.97;;;6.50;99.90;;;;;;5035263;28;20820;-63
2024/03/24 01:56:19;;;;;;;6.30;5.70;;;6.50;99.90;;;;;;5033664;28;20785;-63
2024/03/24 01:58:45;;;;;;;7.27;6.57;;;6.50;99.90;;;;;;5034801;28;20451;-63
2024/03/24 02:01:11;;;;;;;8.17;6.50;;;6.40;99.90;;;;;;5034038;28;20712;-63
2024/03/24 02:03:37;;;;;;;8.47;6.23;;;6.40;99.90;;;;;;5034315;28;20186;-63
2024/03/24 02:06:04;;;;;;;7.80;6.00;;;6.40;99.90;;;;;;5034765;28;20424;-63
2024/03/24 02:08:30;;;;;;;7.00;5.97;;;6.50;99.90;;;;;;5034492;28;20853;-63
2024/03/24 02:10:57;;;;;;;6.03;5.43;;;6.50;99.90;;;;;;5034988;28;20463;-63
2024/03/24 02:13:23;;;;;;;7.10;5.80;;;6.40;99.90;;;;;;5033711;28;20428;-63
2024/03/24 02:15:50;;;;;;;7.77;6.10;;;6.50;99.90;;;;;;5035351;28;20803;-63
2024/03/24 02:18:16;;;;;;;9.00;7.37;;;6.60;99.90;;;;;;5032274;28;20425;-63
2024/03/24 02:20:42;;;;;;;8.53;6.07;;;6.60;99.90;;;;;;5034951;28;20554;-63
2024/03/24 02:23:08;;;;;;;6.70;6.00;;;6.60;99.90;;;;;;5034257;28;20195;-63
2024/03/24 02:25:34;;;;;;;7.77;6.17;;;6.70;99.90;;;;;;5034629;28;20815;-63
2024/03/24 02:27:59;;;;;;;8.77;5.83;;;6.70;99.90;;;;;;5034474;28;20958;-63
2024/03/24 02:30:25;;;;;;;7.23;6.27;;;6.60;99.90;;;;;;5035938;28;20209;-63
2024/03/24 02:32:51;;;;;;;6.80;6.20;;;6.50;99.90;;;;;;5038923;28;20736;-63
2024/03/24 02:35:17;;;;;;;6.60;6.00;;;6.50;99.90;;;;;;5036711;28;20200;-63
2024/03/24 02:37:42;;;;;;;8.93;6.23;;;6.40;99.90;;;;;;5037948;28;20428;-63
2024/03/24 02:40:09;;;;;;;7.97;6.60;;;6.50;99.90;;;;;;5037370;28;20194;-63
2024/03/24 02:42:35;;;;;;;7.00;5.70;;;6.50;99.90;;;;;;5037541;28;20682;-63
2024/03/24 02:45:02;;;;;;;7.73;6.20;;;6.50;99.90;;;;;;5037788;28;20759;-63
2024/03/24 02:47:27;;;;;;;7.87;6.20;;;6.50;99.90;;;;;;5037294;28;20781;-63
2024/03/24 02:49:53;;;;;;;7.07;6.10;;;6.50;99.90;;;;;;5037770;28;20461;-63
2024/03/24 02:52:19;;;;;;;7.47;6.80;;;6.50;99.90;;;;;;5037295;28;20660;-63
2024/03/24 02:54:44;;;;;;;10.00;7.80;;;6.60;99.90;;;;;;5037791;28;20181;-63
2024/03/24 02:57:11;;;;;;;7.87;7.03;;;6.50;99.90;;;;;;5037222;28;20549;-63
2024/03/24 02:59:37;;;;;;;8.93;8.03;;;6.30;99.90;;;;;;5037921;28;20193;-62
2024/03/24 03:02:03;;;;;;;10.00;6.70;;;6.30;99.90;;;;;;5037531;28;20424;-62
2024/03/24 03:04:29;;;;;;;9.00;7.17;;;6.30;99.90;;;;;;5037721;28;20186;-63
2024/03/24 03:06:54;;;;;;;7.90;6.90;;;6.30;99.90;;;;;;5037282;28;20444;-63
2024/03/24 03:09:20;;;;;;;10.27;7.83;;;6.20;99.90;;;;;;5036418;28;20891;-62
2024/03/24 03:11:46;;;;;;;7.23;6.47;;;6.20;99.90;;;;;;5037186;28;20669;-63
2024/03/24 03:14:11;;;;;;;6.67;5.90;;;6.20;99.90;;;;;;5037132;28;20186;-63
2024/03/24 03:16:40;;;;;;;8.50;6.87;;;6.20;99.90;;;;;;5037738;28;20315;-63
2024/03/24 03:19:06;;;;;;;7.40;6.20;;;6.30;99.90;;;;;;5036566;28;20911;-63
2024/03/24 03:21:32;;;;;;;9.03;6.60;;;6.20;99.90;;;;;;5037071;28;20451;-63
2024/03/24 03:23:58;;;;;;;7.13;5.60;;;6.30;99.90;;;;;;5037223;28;20436;-63
2024/03/24 03:26:24;;;;;;;9.57;6.20;;;6.30;99.90;;;;;;5036630;28;20452;-63
2024/03/24 03:28:50;;;;;;;6.50;5.47;;;6.30;99.90;;;;;;5037127;28;20217;-63
2024/03/24 03:31:16;;;;;;;6.60;5.50;;;6.30;99.90;;;;;;5035720;28;20540;-63
2024/03/24 03:33:42;;;;;;;5.30;4.80;;;6.30;99.90;;;;;;5037484;28;20429;-63
2024/03/24 03:36:07;;;;;;;6.07;5.47;;;6.20;99.90;;;;;;5036083;28;20717;-63
2024/03/24 03:38:33;;;;;;;5.00;4.53;;;6.10;99.90;;;;;;5035874;28;20923;-63
2024/03/24 03:40:59;;;;;;;5.00;4.23;;;6.00;99.90;;;;;;5036596;28;20412;-63
2024/03/24 03:43:25;;;;;;;5.73;5.07;;;6.00;99.90;;;;;;5034970;28;20516;-63
2024/03/24 03:45:51;;;;;;;5.63;4.77;;;5.90;99.90;;;;;;5036960;28;20740;-63
2024/03/24 03:48:17;;;;;;;6.83;4.93;;;5.90;99.90;;;;;;5035756;28;20205;-64
2024/03/24 03:50:44;;;;;;;6.80;4.27;;;5.90;99.90;;;;;;5037371;28;20468;-63
2024/03/24 03:53:21;;;;;;;5.07;4.57;;;6.00;99.90;;;;;;5036098;28;20945;-63
2024/03/24 03:55:50;;;;;;;5.90;4.77;;;6.10;99.90;;;;;;5037333;28;20471;-63
2024/03/24 03:58:18;;;;;;;5.80;4.83;;;6.10;99.90;;;;;;5035961;28;20427;-62
2024/03/24 04:00:43;;;;;;;7.97;4.93;;;6.10;99.90;;;;;;5036809;28;20467;-62
2024/03/24 04:03:09;;;;;;;5.77;4.93;;;6.10;99.90;;;;;;5036284;28;20893;-63
2024/03/24 04:05:39;;;;;;;7.50;5.40;;;6.10;99.90;;;;;;5036768;28;20811;-63
2024/03/24 04:08:07;;;;;;;6.33;5.13;;;6.10;99.90;;;;;;5035987;28;20209;-63
2024/03/24 04:10:36;;;;;;;5.60;5.00;;;6.00;99.90;;;;;;5036981;28;21039;-63
2024/03/24 04:13:05;;;;;;;8.40;5.53;;;6.00;99.90;;;;;;5067282;28;20429;-63
2024/03/24 04:15:30;;;;;;;8.07;5.40;;;6.00;99.90;;;;;;5036500;28;20417;-63
2024/03/24 04:17:56;;;;;;;6.70;5.80;;;6.10;99.90;;;;;;5035909;28;20417;-63
2024/03/24 04:20:22;;;;;;;7.07;5.97;;;6.10;99.90;;;;;;5035573;28;20679;-63
2024/03/24 04:22:51;;;;;;;6.23;4.90;;;6.20;99.90;;;;;;5036319;28;20424;-63
2024/03/24 04:25:17;;;;;;;8.10;4.97;;;6.20;99.90;;;;;;5035819;28;20550;-62
2024/03/24 04:27:43;;;;;;;7.63;5.80;;;6.10;99.90;;;;;;5037397;28;20437;-63
2024/03/24 04:30:09;;;;;;;8.17;6.57;;;6.10;99.90;;;;;;5035372;28;20695;-62
2024/03/24 04:32:35;;;;;;;8.23;6.50;;;6.20;99.90;;;;;;5036547;28;20244;-63
2024/03/24 04:35:00;;;;;;;10.00;6.10;;;6.10;99.90;;;;;;5035102;28;20436;-63
2024/03/24 04:37:26;;;;;;;9.40;6.03;;;6.20;99.90;;;;;;5035984;28;20185;-63
2024/03/24 04:39:52;;;;;;;10.40;6.23;;;6.20;99.90;;;;;;5036585;28;20182;-63
2024/03/24 04:42:18;;;;;;;6.90;6.17;;;6.30;99.90;;;;;;5035090;28;20189;-63
2024/03/24 04:44:44;;;;;;;7.70;5.53;;;6.20;99.90;;;;;;5035766;28;20860;-62
2024/03/24 04:47:10;;;;;;;9.17;5.83;;;6.30;99.90;;;;;;5035168;28;20182;-63
2024/03/24 04:49:35;;;;;;;7.20;6.07;;;6.30;99.90;;;;;;5036064;28;20213;-63
2024/03/24 04:52:01;;;;;;;7.47;5.60;;;6.30;99.90;;;;;;5035521;28;20677;-63
2024/03/24 04:54:27;;;;;;;7.63;5.87;;;6.30;99.90;;;;;;5036147;28;20182;-62
2024/03/24 04:56:52;;;;;;;8.03;6.20;;;6.30;99.90;;;;;;5035349;28;20189;-63
2024/03/24 04:59:18;;;;;;;15.10;6.40;;;6.30;99.90;;;;;;5035771;28;20252;-63
2024/03/24 05:01:44;;;;;;;5.60;5.10;;;6.30;99.90;;;;;;5035883;28;20184;-63
2024/03/24 05:04:10;;;;;;;7.23;6.03;;;6.30;99.90;;;;;;5034996;28;20965;-63
2024/03/24 05:06:36;;;;;;;8.60;5.00;;;6.30;99.90;;;;;;5035968;28;20432;-63
2024/03/24 05:09:04;;;;;;;5.20;4.60;;;6.20;99.90;;;;;;5034968;28;20225;-63
2024/03/24 05:11:30;;;;;;;6.00;5.40;;;6.20;99.90;;;;;;5035953;28;20699;-63
2024/03/24 05:13:56;;;;;;;7.50;5.47;;;6.20;99.90;;;;;;5035350;28;20846;-63
2024/03/24 05:16:22;;;;;;;7.13;5.07;;;6.20;99.90;;;;;;5035650;28;20489;-63
2024/03/24 05:18:48;;;;;;;6.57;5.20;;;6.20;99.90;;;;;;5035325;28;20272;-63
2024/03/24 05:21:14;;;;;;;6.87;5.57;;;6.10;99.90;;;;;;5035172;28;21299;-62
2024/03/24 05:23:40;;;;;;;7.60;5.53;;;6.20;99.90;;;;;;5036267;28;20478;-63
2024/03/24 05:26:05;;;;;;;6.63;5.77;;;6.20;99.90;;;;;;5034383;28;20182;-63
2024/03/24 05:28:31;;;;;;;6.17;4.63;;;6.30;99.90;;;;;;5035400;28;20186;-62
2024/03/24 05:30:57;;;;;;;6.80;5.13;;;6.30;99.90;;;;;;5034414;28;20217;-63
2024/03/24 05:33:23;;;;;;;5.97;4.80;;;6.40;99.90;;;;;;5035613;28;20847;-63
2024/03/24 05:35:58;;;;;;;5.37;4.67;;;6.30;99.90;;;;;;5035661;28;20461;-62
2024/03/24 05:38:24;;;;;;;4.83;4.33;;;6.30;99.90;;;;;;5035078;28;20190;-63
2024/03/24 05:41:00;;;;;;;9.17;4.77;;;6.30;99.90;;;;;;5035909;28;20910;-62
2024/03/24 05:43:26;;;;;;;6.00;4.60;;;6.40;99.90;;;;;;5035350;28;20216;-63
2024/03/24 05:45:56;;;;;;;4.43;4.03;;;6.30;99.90;;;;;;5035168;28;20852;-63
2024/03/24 05:48:24;;;;;;;3.93;3.30;;;6.30;99.90;;;;;;5035230;28;20425;-62
2024/03/24 05:51:00;;;;;;;3.70;3.40;;;6.30;99.90;;;;;;5034851;28;20952;-63
2024/03/24 05:53:26;;;;;;;10.80;4.00;;;6.30;99.90;;;;;;5034939;28;20421;-63
2024/03/24 05:55:52;;;;;;;5.13;4.07;;;6.30;99.90;;;;;;5034956;28;20413;-63
2024/03/24 05:58:19;;;;;;;3.60;3.20;;;6.30;99.90;;;;;;5033929;28;20428;-63
2024/03/24 06:00:47;;;;;;;4.57;3.57;;;6.30;99.90;;;;;;5035553;28;20177;-63
2024/03/24 06:03:13;;;;;;;4.00;3.07;;;6.30;99.90;;;;;;5034431;28;20429;-63
2024/03/24 06:05:39;;;;;;;3.23;2.87;;;6.20;99.90;;;;;;5035041;28;20431;-63
2024/03/24 06:08:08;;;;;;;3.40;2.63;;;6.10;99.90;;;;;;5034406;28;20445;-63
2024/03/24 06:10:35;;;;;;;3.60;2.77;;;6.20;99.90;;;;;;5034949;28;20505;-63
2024/03/24 06:13:00;;;;;;;2.87;2.57;;;6.20;99.90;;;;;;5047118;28;20494;-63
2024/03/24 06:15:26;;;;;;;3.70;2.37;;;6.20;99.90;;;;;;5034842;28;20433;-63
2024/03/24 06:17:52;;;;;;;3.43;2.60;;;6.20;99.90;;;;;;5034592;28;20187;-63
2024/03/24 06:20:17;;;;;;;2.77;2.43;;;6.20;99.90;;;;;;5034887;28;20185;-63
2024/03/24 06:22:43;;;;;;;3.37;2.60;;;6.10;99.90;;;;;;5035539;28;20193;-63
2024/03/24 06:25:09;;;;;;;5.23;3.37;;;6.20;99.90;;;;;;5033542;28;20632;-63
2024/03/24 06:27:35;;;;;;;3.30;2.83;;;6.20;99.90;;;;;;5035261;28;20179;-63
2024/03/24 06:30:01;;;;;;;5.03;3.40;;;6.30;99.90;;;;;;5033246;28;20224;-63
2024/03/24 06:32:27;;;;;;;4.50;3.77;;;6.30;99.90;;;;;;5034628;28;20483;-63
2024/03/24 06:34:53;;;;;;;6.73;4.53;;;6.30;99.90;;;;;;5035186;28;21331;-63
2024/03/24 06:37:18;;;;;;;6.67;4.50;;;6.30;99.90;;;;;;5035052;28;20767;-63
2024/03/24 06:39:44;;;;;;;5.77;4.13;;;6.20;99.90;;;;;;5035459;28;20189;-63
2024/03/24 06:42:10;;;;;;;6.53;4.70;;;6.20;99.90;;;;;;5033400;28;20200;-63
2024/03/24 06:44:37;;;;;;;7.17;4.63;;;6.30;99.90;;;;;;5035448;28;20182;-63
2024/03/24 06:47:03;;;;;;;5.37;4.57;;;6.30;99.90;;;;;;5034290;28;20193;-62
2024/03/24 06:49:30;;;;;;;7.57;5.33;;;6.20;99.90;;;;;;5034689;28;20548;-63
2024/03/24 06:51:55;;;;;;;5.57;4.43;;;6.20;99.90;;;;;;5034923;28;20425;-63
2024/03/24 06:54:21;;;;;;;7.40;4.40;;;6.30;99.90;;;;;;5035498;28;21105;-63
2024/03/24 06:56:47;;;;;;;4.40;3.63;;;6.30;99.90;;;;;;5035110;28;20185;-63
2024/03/24 06:59:12;;;;;;;5.83;4.43;;;6.30;99.90;;;;;;5033492;28;20186;-63
2024/03/24 07:01:38;;;;;;;4.27;3.87;;;6.30;99.90;;;;;;5035262;28;20244;-63
2024/03/24 07:04:04;;;;;;;4.17;3.30;;;6.20;99.90;;;;;;5033771;28;20565;-63
2024/03/24 07:06:32;;;;;;;3.70;3.30;;;6.20;99.90;;;;;;5034830;28;20281;-63
2024/03/24 07:08:57;;;;;;;4.73;3.23;;;6.10;99.90;;;;;;5034377;28;20436;-62
2024/03/24 07:11:23;;;;;;;2.80;2.50;;;6.10;99.90;;;;;;5033793;28;20550;-62
2024/03/24 07:13:49;;;;;;;4.17;2.83;;;6.10;99.90;;;;;;5034436;28;20420;-63
2024/03/24 07:16:15;;;;;;;3.77;2.60;;;6.20;99.90;;;;;;5033980;28;20231;-63
2024/03/24 07:18:40;;;;;;;3.60;2.63;;;6.20;99.90;;;;;;5036507;28;20464;-63
2024/03/24 07:21:07;;;;;;;3.63;3.20;;;6.10;99.90;;;;;;5036801;28;20182;-63
2024/03/24 07:23:33;;;;;;;2.80;2.10;;;6.10;99.90;;;;;;5038463;28;20213;-63
2024/03/24 07:25:59;;;;;;;2.77;2.10;;;6.00;99.90;;;;;;5037168;28;20501;-63
2024/03/24 07:28:25;;;;;;;2.77;2.13;;;6.00;99.90;;;;;;5037864;28;20433;-63
2024/03/24 07:30:50;;;;;;;3.80;2.53;;;6.10;99.90;;;;;;5037821;28;20474;-63
2024/03/24 07:33:16;;;;;;;3.00;2.20;;;6.00;99.90;;;;;;5037276;28;20244;-63
2024/03/24 07:35:42;;;;;;;6.73;2.33;;;6.00;99.90;;;;;;5038665;28;20189;-63
2024/03/24 07:38:09;;;;;;;2.10;1.77;;;6.00;99.90;;;;;;5037453;28;20475;-63
2024/03/24 07:40:34;;;;;;;3.83;2.47;;;6.10;99.90;;;;;;5038530;28;20431;-63
2024/03/24 07:43:00;;;;;;;3.73;2.17;;;6.10;99.90;;;;;;5035175;28;20432;-62
2024/03/24 07:45:26;;;;;;;4.90;2.30;;;6.10;99.90;;;;;;5037704;28;20244;-61
2024/03/24 07:47:51;;;;;;;3.50;2.67;;;6.10;99.90;;;;;;5035978;28;20247;-62
2024/03/24 07:50:18;;;;;;;4.40;2.50;;;6.00;99.90;;;;;;5035452;28;20210;-61
2024/03/24 07:52:44;;;;;;;2.63;2.03;;;6.00;99.90;;;;;;5035259;28;20236;-61
2024/03/24 07:55:10;;;;;;;2.30;1.93;;;6.10;99.90;;;;;;5037043;28;20420;-61
2024/03/24 07:57:37;;;;;;;5.47;2.60;;;6.10;99.90;;;;;;5030537;28;21448;-61
2024/03/24 08:00:04;;;;;;;3.37;2.13;;;6.10;99.90;;;;;;5035297;28;20456;-61
2024/03/24 08:02:29;;;;;;;5.63;2.50;;;6.20;99.90;;;;;;5036742;28;20441;-62
2024/03/24 08:04:55;;;;;;;3.63;2.07;;;6.10;99.90;;;;;;5036813;28;20899;-62
2024/03/24 08:07:21;;;;;;;2.70;2.30;;;6.20;99.90;;;;;;5037186;28;20225;-62
2024/03/24 08:09:46;;;;;;;4.20;3.00;;;6.10;99.90;;;;;;5038355;28;20240;-61
2024/03/24 08:12:12;;;;;;;4.80;3.03;;;6.20;99.90;;;;;;5037569;28;20190;-62
2024/03/24 08:14:40;;;;;;;5.80;4.10;;;6.20;99.90;;;;;;5037211;28;20302;-61
2024/03/24 08:17:06;;;;;;;4.67;3.43;;;6.20;99.90;;;;;;5036405;28;20186;-62
2024/03/24 08:19:31;;;;;;;4.13;3.73;;;6.30;99.90;;;;;;5036694;28;20952;-62
2024/03/24 08:21:57;;;;;;;8.73;4.57;;;6.30;99.90;;;;;;5036614;28;20918;-62
2024/03/24 08:24:23;;;;;;;5.67;4.33;;;6.30;99.90;;;;;;5037722;28;20240;-62
2024/03/24 08:26:48;;;;;;;4.50;3.90;;;6.30;99.90;;;;;;5035916;28;20193;-62
2024/03/24 08:29:14;;;;;;;6.07;4.40;;;6.30;99.90;;;;;;5037237;28;20375;-62
2024/03/24 08:31:40;;;;;;;6.53;4.50;;;6.40;99.90;;;;;;5036781;28;20189;-62
2024/03/24 08:34:05;;;;;;;4.90;4.40;;;6.40;99.90;;;;;;5035686;28;20202;-62
2024/03/24 08:36:31;;;;;;;4.53;4.07;;;6.40;99.90;;;;;;5037264;28;20223;-61
2024/03/24 08:38:56;;;;;;;6.30;4.63;;;6.40;99.90;;;;;;5036435;28;20265;-61
2024/03/24 08:41:22;;;;;;;5.97;4.70;;;6.40;99.90;;;;;;5037415;28;20223;-62
2024/03/24 08:43:48;;;;;;;6.87;5.03;;;6.40;99.90;;;;;;5036920;28;20213;-61
2024/03/24 08:46:13;;;;;;;5.30;4.80;;;6.50;99.90;;;;;;5037454;28;20228;-62
2024/03/24 08:48:39;;;;;;;6.00;5.30;;;6.60;99.90;;;;;;5035599;28;20190;-62
2024/03/24 08:51:05;;;;;;;8.17;6.43;;;6.70;99.90;;;;;;5035923;28;20220;-62
2024/03/24 08:53:31;;;;;;;7.97;6.97;;;6.70;99.90;;;;;;5036790;28;20197;-62
2024/03/24 08:55:56;;;;;;;8.13;6.60;;;6.80;99.90;;;;;;5036106;28;20183;-62
2024/03/24 08:58:22;;;;;;;9.97;7.90;;;6.90;99.90;;;;;;5037177;28;20240;-62
2024/03/24 09:00:52;;;;;;;8.83;7.67;;;7.00;99.90;;;;;;5036811;28;20209;-61
2024/03/24 09:03:18;;;;;;;10.57;9.00;;;7.10;99.90;;;;;;5038114;28;20186;-62
2024/03/24 09:05:44;;;;;;;10.73;8.83;;;7.10;99.90;;;;;;5036044;28;20437;-62
2024/03/24 09:08:09;;;;;;;12.10;9.03;;;7.10;99.90;;;;;;5035856;28;20445;-62
2024/03/24 09:10:35;;;;;;;10.07;8.43;;;7.20;99.90;;;;;;5035977;28;20293;-62
2024/03/24 09:13:01;;;;;;;11.33;8.37;;;7.20;99.90;;;;;;5035033;28;20198;-62
2024/03/24 09:15:27;;;;;;;13.10;9.20;;;7.30;99.90;;;;;;5036566;28;20537;-62
2024/03/24 09:17:52;;;;;;;15.40;8.20;;;7.20;99.90;;;;;;5040203;28;20185;-62
2024/03/24 09:20:19;;;;;;;9.23;7.93;;;7.30;99.90;;;;;;5036595;28;20189;-62
2024/03/24 09:22:46;;;;;;;10.77;8.53;;;7.40;99.90;;;;;;5065399;28;20209;-62
2024/03/24 09:25:11;;;;;;;9.40;8.07;;;7.50;99.90;;;;;;5064919;28;20432;-62
2024/03/24 09:27:37;;;;;;;9.87;7.60;;;7.50;99.90;;;;;;5036570;28;20428;-61
2024/03/24 09:30:04;;;;;;;11.57;7.77;;;7.60;99.90;;;;;;5035457;28;20639;-62
2024/03/24 09:32:30;;;;;;;11.53;7.70;;;7.70;99.90;;;;;;5036659;28;21069;-61
2024/03/24 09:34:56;;;;;;;10.20;7.70;;;7.80;99.90;;;;;;5035830;28;20523;-62
2024/03/24 09:37:22;;;;;;;14.50;8.03;;;7.80;99.90;;;;;;5036678;28;20552;-62
2024/03/24 09:39:47;;;;;;;10.40;7.27;;;7.70;99.90;;;;;;5034923;28;20181;-62
2024/03/24 09:42:14;;;;;;;10.83;7.00;;;7.70;99.90;;;;;;5038670;28;20429;-62
2024/03/24 09:44:41;;;;;;;8.97;6.17;;;7.80;99.90;;;;;;5035300;28;20182;-61
2024/03/24 09:47:07;;;;;;;10.97;5.90;;;7.70;99.90;;;;;;5036206;28;20432;-62
2024/03/24 09:49:34;;;;;;;8.33;5.90;;;7.70;99.90;;;;;;5034977;28;20993;-62
2024/03/24 09:52:01;;;;;;;10.00;6.83;;;7.70;99.90;;;;;;5036305;28;20427;-62
2024/03/24 09:54:27;;;;;;;9.63;6.50;;;7.80;99.90;;;;;;5037395;28;20537;-60
2024/03/24 09:56:53;;;;;;;7.50;5.83;;;7.80;99.90;;;;;;5036544;28;20424;-61
2024/03/24 09:59:20;;;;;;;12.67;6.90;;;7.80;99.90;;;;;;5034645;28;20417;-62
2024/03/24 10:01:47;;;;;;;10.57;6.73;;;7.90;99.90;;;;;;5034536;28;20420;-62
2024/03/24 10:04:15;;;;;;;12.83;6.57;;;7.90;99.90;;;;;;5035037;28;20424;-62
2024/03/24 10:06:41;;;;;;;14.30;8.33;;;8.10;99.90;;;;;;5034732;28;20491;-62
2024/03/24 10:09:07;;;;;;;9.30;7.03;;;8.30;99.90;;;;;;5034116;28;20514;-62
2024/03/24 10:11:34;;;;;;;10.10;6.77;;;8.40;99.90;;;;;;5066534;28;20840;-62
2024/03/24 10:14:05;;;;;;;9.27;5.97;;;8.50;99.90;;;;;;5035985;28;20436;-62
2024/03/24 10:16:31;;;;;;;8.20;5.97;;;8.50;99.90;;;;;;5034836;28;20843;-62
2024/03/24 10:18:56;;;;;;;8.17;6.70;;;8.50;99.90;;;;;;5034872;28;20467;-62
2024/03/24 10:21:23;;;;;;;8.27;6.20;;;8.50;99.90;;;;;;5035248;28;20429;-62
2024/03/24 10:23:48;;;;;;;13.97;6.20;;;8.50;99.90;;;;;;5033153;28;20186;-61
2024/03/24 10:26:22;;;;;;;9.10;5.47;;;8.60;99.90;;;;;;5034576;28;20440;-62
2024/03/24 10:28:51;;;;;;;8.30;5.40;;;8.70;99.90;;;;;;5038519;28;20424;-62
2024/03/24 10:31:17;;;;;;;9.10;5.37;;;8.80;99.90;;;;;;5034670;28;20537;-62
2024/03/24 10:33:44;;;;;;;11.00;6.20;;;8.90;99.90;;;;;;5034518;28;20433;-61
2024/03/24 10:36:10;;;;;;;9.40;5.03;;;8.90;99.90;;;;;;5034241;28;20436;-62
2024/03/24 10:38:37;;;;;;;7.43;5.80;;;8.90;99.90;;;;;;5033666;28;20427;-62
2024/03/24 10:41:04;;;;;;;8.10;4.87;;;8.80;99.90;;;;;;5032601;28;20425;-62
2024/03/24 10:43:31;;;;;;;8.47;4.50;;;8.80;99.90;;;;;;5032706;28;20431;-62
2024/03/24 10:45:57;;;;;;;9.40;4.70;;;8.80;99.90;;;;;;5032293;28;20978;-61
2024/03/24 10:48:30;;;;;;;9.30;5.07;;;8.80;99.90;;;;;;5034093;28;20461;-62
2024/03/24 10:50:58;;;;;;;10.90;4.10;;;8.80;99.90;;;;;;5034216;28;20464;-62
2024/03/24 10:53:26;;;;;;;10.03;4.40;;;8.80;99.90;;;;;;5036581;28;20451;-62
2024/03/24 10:55:55;;;;;;;5.50;3.60;;;8.80;99.90;;;;;;5068524;28;21305;-62
2024/03/24 10:58:22;;;;;;;8.33;3.90;;;8.90;99.90;;;;;;5038449;28;20425;-61
2024/03/24 11:00:49;;;;;;;5.80;4.00;;;8.80;99.90;;;;;;5036747;28;20421;-61
2024/03/24 11:03:15;;;;;;;6.00;3.77;;;8.80;99.90;;;;;;5037710;28;20440;-60
2024/03/24 11:05:49;;;;;;;5.63;3.57;;;8.60;99.90;;;;;;5036304;28;20425;-60
2024/03/24 11:08:18;;;;;;;10.13;3.83;;;8.50;99.90;;;;;;5037827;28;20483;-61
2024/03/24 11:10:48;;;;;;;6.57;4.00;;;8.50;99.90;;;;;;5036525;28;20468;-61
2024/03/24 11:13:17;;;;;;;9.63;3.93;;;8.40;99.90;;;;;;5037844;28;20425;-61
2024/03/24 11:15:46;;;;;;;8.60;3.57;;;8.40;99.90;;;;;;5036883;28;20472;-60
2024/03/24 11:18:20;;;;;;;4.33;2.60;;;8.40;99.90;;;;;;5038168;28;20433;-61
2024/03/24 11:20:50;;;;;;;7.17;2.87;;;8.40;99.90;;;;;;5035808;28;20435;-61
2024/03/24 11:23:20;;;;;;;7.80;3.20;;;8.40;99.90;;;;;;5037403;28;20441;-61
2024/03/24 11:25:50;;;;;;;5.00;2.63;;;8.40;99.90;;;;;;5036787;28;20895;-60
2024/03/24 11:28:45;;;;;;;7.50;3.77;;;8.40;99.90;;;;;;5038005;28;20460;-61
2024/03/24 11:31:33;;;;;;;6.30;4.10;;;8.40;99.90;;;;;;5036939;28;20559;-60
2024/03/24 11:34:12;;;;;;;8.97;3.30;;;8.40;99.90;;;;;;5037204;28;20486;-61
2024/03/24 11:36:42;;;;;;;5.47;4.43;;;8.30;99.90;;;;;;5036918;28;20435;-60
2024/03/24 11:39:10;;;;;;;4.73;3.40;;;8.20;99.90;;;;;;5070062;28;20425;-61
2024/03/24 11:41:35;;;;;;;9.37;3.90;;;8.20;99.90;;;;;;5037570;28;20436;-60
2024/03/24 11:44:03;;;;;;;5.40;3.20;;;8.10;99.90;;;;;;5039306;28;20420;-61
2024/03/24 11:46:31;;;;;;;7.50;3.20;;;8.10;99.90;;;;;;5036072;28;20424;-61
2024/03/24 11:48:58;;;;;;;11.13;3.67;;;8.10;99.90;;;;;;5037280;28;20456;-61
2024/03/24 11:51:25;;;;;;;6.83;4.17;;;8.00;99.90;;;;;;5036824;28;20453;-61
2024/03/24 11:53:56;;;;;;;4.93;2.80;;;8.00;99.90;;;;;;5036831;28;20798;-60
2024/03/24 11:56:22;;;;;;;6.30;3.47;;;7.90;99.90;;;;;;5036927;28;20515;-61
2024/03/24 11:58:50;;;;;;;4.07;3.07;;;7.90;99.90;;;;;;5035913;28;20420;-60
2024/03/24 12:01:17;;;;;;;4.47;2.57;;;7.80;99.90;;;;;;5037053;28;20429;-61
2024/03/24 12:03:43;;;;;;;4.40;2.73;;;7.70;99.90;;;;;;5034061;28;20428;-61
2024/03/24 12:06:12;;;;;;;5.00;2.60;;;7.70;99.90;;;;;;5036263;28;20448;-60
2024/03/24 12:08:39;;;;;;;5.00;2.67;;;7.70;99.90;;;;;;5036997;28;20455;-60
2024/03/24 12:11:05;;;;;;;3.07;1.93;;;7.70;99.90;;;;;;5035662;28;20476;-61
2024/03/24 12:13:30;;;;;;;6.80;2.63;;;7.80;99.90;;;;;;5036407;28;20454;-61
2024/03/24 12:15:56;;;;;;;3.40;2.43;;;7.80;99.90;;;;;;5036441;28;20595;-61
2024/03/24 12:18:22;;;;;;;3.60;2.30;;;7.80;99.90;;;;;;5036421;28;20190;-61
2024/03/24 12:20:50;;;;;;;4.80;2.90;;;7.90;99.90;;;;;;5035335;28;20192;-61
2024/03/24 12:23:16;;;;;;;4.87;3.40;;;8.10;99.90;;;;;;5036873;28;20182;-61
2024/03/24 12:25:49;;;;;;;5.73;2.67;;;8.30;99.90;;;;;;5032349;28;20498;-61
2024/03/24 12:28:17;;;;;;;9.93;3.27;;;8.50;99.90;;;;;;5038098;28;20444;-60
2024/03/24 12:30:55;;;;;;;5.37;2.70;;;8.90;99.90;;;;;;5037269;28;20472;-60
2024/03/24 12:33:25;;;;;;;9.20;3.27;;;9.20;99.90;;;;;;5038694;28;20472;-60
2024/03/24 12:35:53;;;;;;;5.30;2.87;;;9.40;99.90;;;;;;5033813;28;21037;-60
2024/03/24 12:38:18;;;;;;;7.80;3.23;;;9.60;99.90;;;;;;5035398;28;20424;-61
2024/03/24 12:40:50;;;;;;;4.33;2.70;;;9.70;99.90;;;;;;5038271;28;20907;-60
2024/03/24 12:43:16;;;;;;;4.20;2.67;;;9.60;99.90;;;;;;5038471;28;20434;-61
2024/03/24 12:45:59;;;;;;;4.70;2.80;;;9.70;99.90;;;;;;5037033;28;20429;-60
2024/03/24 12:48:28;;;;;;;6.00;3.30;;;9.60;99.90;;;;;;5037963;28;20519;-60
2024/03/24 12:50:55;;;;;;;6.80;3.50;;;9.60;99.90;;;;;;5036501;28;20558;-60
2024/03/24 12:53:35;;;;;;;5.90;3.53;;;9.60;99.90;;;;;;5033472;28;20458;-61